This is the latest recevied weather packets stored in our database for station/object KC9DNQ-3. If no packets are shown the sender has not sent any weather packets the latest 1 day(s).
| Time | Temp. | Humidity | Pressure | Rain* | Wind** | Luminosity | Snow |
|---|---|---|---|---|---|---|---|
| 1836274686 | 18.89° C | 94% | 1015.7 hPa | 0 mm | 0 m/s | 0 W/m² | - |
| 1836274537 | 18.89° C | 94% | 1015.7 hPa | 0 mm | 0 m/s | 0 W/m² | - |
| 1836274386 | 18.89° C | 94% | 1015.7 hPa | 0 mm | 0 m/s | 0 W/m² | - |
| 1836274236 | 18.89° C | 94% | 1015.7 hPa | 0 mm | 0 m/s | 0 W/m² | - |
| 1836274088 | 18.89° C | 94% | 1015.7 hPa | 0 mm | 0 m/s | 0 W/m² | - |
| 1778039108 | 10° C | 69% | 1009.6 hPa | 0 mm | 0.45 m/s, 296° | 0 W/m² | - |
| 1778038809 | 10° C | 70% | 1009.6 hPa | 0 mm | 0.45 m/s, 296° | 0 W/m² | - |
| 1778038508 | 10° C | 67% | 1009.5 hPa | 0 mm | 0.45 m/s, 296° | 0 W/m² | - |
| 1778038208 | 10° C | 70% | 1009.5 hPa | 0 mm | 0 m/s | 0 W/m² | - |
| 1778037908 | 10° C | 68% | 1009.5 hPa | 0 mm | 0.45 m/s, 296° | 0 W/m² | - |
| 1778037608 | 10° C | 70% | 1009.3 hPa | 0 mm | 0 m/s | 0 W/m² | - |
| 1778037309 | 10° C | 70% | 1009.3 hPa | 0 mm | 0.45 m/s, 296° | 0 W/m² | - |
| 1778037008 | 10° C | 68% | 1009.4 hPa | 0 mm | 0 m/s | 0 W/m² | - |
| 1778036708 | 10° C | 68% | 1009.2 hPa | 0 mm | 0.45 m/s, 296° | 0 W/m² | - |
| 1778036409 | 10° C | 69% | 1009.2 hPa | 0 mm | 0.45 m/s, 296° | 0 W/m² | - |
| 1778036108 | 10° C | 67% | 1009.2 hPa | 0 mm | 0 m/s | 0 W/m² | - |
| 1778035809 | 10° C | 68% | 1008.9 hPa | 0 mm | 0 m/s | 0 W/m² | - |
| 1778035509 | 10° C | 71% | 1008.8 hPa | 0 mm | 0 m/s | 0 W/m² | - |
| 1778035208 | 10° C | 70% | 1008.8 hPa | 0 mm | 0 m/s | 0 W/m² | - |
| 1778034909 | 10° C | 68% | 1008.8 hPa | 0 mm | 0 m/s | 0 W/m² | - |
| 1778034608 | 10° C | 65% | 1008.8 hPa | 0 mm | 0 m/s | 0 W/m² | - |
| 1778034308 | 10° C | 66% | 1008.8 hPa | 0 mm | 0 m/s | 0 W/m² | - |
| 1778034008 | 10.56° C | 68% | 1008.8 hPa | 0 mm | 0 m/s | 0 W/m² | - |
| 1778033708 | 10.56° C | 66% | 1008.8 hPa | 0 mm | 0.45 m/s, 296° | 0 W/m² | - |
| 1778033408 | 10.56° C | 67% | 1008.3 hPa | 0 mm | 0 m/s | 0 W/m² | - |
* Rain latest hour (hover to see other rain measurements)
** Current wind speed in m/s (hover to see current wind gust speed)